sensor_id;sensor_type;location;lat;lon;timestamp;P1;durP1;ratioP1;P2;durP2;ratioP2
21472;SDS011;10898;48.072;11.682;2023-08-20T00:02:01;6.25;;;4.78;;
21472;SDS011;10898;48.072;11.682;2023-08-20T00:04:04;8.98;;;4.57;;
21472;SDS011;10898;48.072;11.682;2023-08-20T00:06:06;7.70;;;4.60;;
21472;SDS011;10898;48.072;11.682;2023-08-20T00:08:08;5.18;;;4.57;;
21472;SDS011;10898;48.072;11.682;2023-08-20T00:10:11;8.00;;;4.70;;
21472;SDS011;10898;48.072;11.682;2023-08-20T00:12:13;7.70;;;5.20;;
21472;SDS011;10898;48.072;11.682;2023-08-20T00:14:16;5.32;;;4.22;;
21472;SDS011;10898;48.072;11.682;2023-08-20T00:18:20;7.13;;;4.85;;
21472;SDS011;10898;48.072;11.682;2023-08-20T00:20:22;5.53;;;4.95;;
21472;SDS011;10898;48.072;11.682;2023-08-20T00:22:25;6.15;;;4.72;;
21472;SDS011;10898;48.072;11.682;2023-08-20T00:24:27;9.05;;;5.20;;
21472;SDS011;10898;48.072;11.682;2023-08-20T00:26:29;7.57;;;5.15;;
21472;SDS011;10898;48.072;11.682;2023-08-20T00:28:32;8.63;;;4.90;;
21472;SDS011;10898;48.072;11.682;2023-08-20T00:30:40;7.85;;;5.10;;
21472;SDS011;10898;48.072;11.682;2023-08-20T00:32:42;6.82;;;5.10;;
21472;SDS011;10898;48.072;11.682;2023-08-20T00:34:44;7.30;;;5.07;;
21472;SDS011;10898;48.072;11.682;2023-08-20T00:36:46;8.02;;;4.63;;
21472;SDS011;10898;48.072;11.682;2023-08-20T00:38:49;8.82;;;4.90;;
21472;SDS011;10898;48.072;11.682;2023-08-20T00:40:51;6.95;;;5.15;;
21472;SDS011;10898;48.072;11.682;2023-08-20T00:42:53;6.60;;;4.68;;
21472;SDS011;10898;48.072;11.682;2023-08-20T00:44:55;5.88;;;4.70;;
21472;SDS011;10898;48.072;11.682;2023-08-20T00:46:58;8.02;;;4.97;;
21472;SDS011;10898;48.072;11.682;2023-08-20T00:49:01;5.40;;;4.72;;
21472;SDS011;10898;48.072;11.682;2023-08-20T00:51:03;7.57;;;4.55;;
21472;SDS011;10898;48.072;11.682;2023-08-20T00:53:07;7.35;;;4.90;;
21472;SDS011;10898;48.072;11.682;2023-08-20T00:55:10;7.47;;;5.18;;
21472;SDS011;10898;48.072;11.682;2023-08-20T00:57:14;8.43;;;4.88;;
21472;SDS011;10898;48.072;11.682;2023-08-20T00:59:16;5.82;;;5.18;;
21472;SDS011;10898;48.072;11.682;2023-08-20T01:01:19;6.85;;;5.07;;
21472;SDS011;10898;48.072;11.682;2023-08-20T01:03:21;8.25;;;5.75;;
21472;SDS011;10898;48.072;11.682;2023-08-20T01:05:23;7.95;;;4.88;;
21472;SDS011;10898;48.072;11.682;2023-08-20T01:11:37;10.25;;;5.20;;
21472;SDS011;10898;48.072;11.682;2023-08-20T01:13:40;7.85;;;4.85;;
21472;SDS011;10898;48.072;11.682;2023-08-20T01:15:43;5.65;;;4.63;;
21472;SDS011;10898;48.072;11.682;2023-08-20T01:17:45;7.72;;;4.78;;
21472;SDS011;10898;48.072;11.682;2023-08-20T01:19:47;6.13;;;4.60;;
21472;SDS011;10898;48.072;11.682;2023-08-20T01:26:56;5.95;;;5.03;;
21472;SDS011;10898;48.072;11.682;2023-08-20T01:29:02;7.55;;;4.72;;
21472;SDS011;10898;48.072;11.682;2023-08-20T01:31:05;8.05;;;4.93;;
21472;SDS011;10898;48.072;11.682;2023-08-20T01:33:08;7.80;;;5.28;;
21472;SDS011;10898;48.072;11.682;2023-08-20T01:35:12;6.97;;;4.65;;
21472;SDS011;10898;48.072;11.682;2023-08-20T01:37:17;9.15;;;4.80;;
21472;SDS011;10898;48.072;11.682;2023-08-20T01:39:19;6.72;;;4.80;;
21472;SDS011;10898;48.072;11.682;2023-08-20T01:41:21;6.97;;;5.18;;
21472;SDS011;10898;48.072;11.682;2023-08-20T01:43:23;6.55;;;5.00;;
21472;SDS011;10898;48.072;11.682;2023-08-20T01:45:26;6.88;;;4.78;;
21472;SDS011;10898;48.072;11.682;2023-08-20T01:47:28;10.05;;;5.25;;
21472;SDS011;10898;48.072;11.682;2023-08-20T01:49:30;7.30;;;5.15;;
21472;SDS011;10898;48.072;11.682;2023-08-20T01:51:33;7.22;;;5.65;;
21472;SDS011;10898;48.072;11.682;2023-08-20T01:53:35;5.00;;;4.50;;
21472;SDS011;10898;48.072;11.682;2023-08-20T01:55:37;6.05;;;5.45;;
21472;SDS011;10898;48.072;11.682;2023-08-20T01:57:39;9.60;;;5.13;;
21472;SDS011;10898;48.072;11.682;2023-08-20T01:59:42;8.65;;;4.88;;
21472;SDS011;10898;48.072;11.682;2023-08-20T02:01:44;6.15;;;5.15;;
21472;SDS011;10898;48.072;11.682;2023-08-20T02:03:46;6.32;;;5.13;;
21472;SDS011;10898;48.072;11.682;2023-08-20T02:05:48;6.57;;;4.45;;
21472;SDS011;10898;48.072;11.682;2023-08-20T02:07:50;7.75;;;5.03;;
21472;SDS011;10898;48.072;11.682;2023-08-20T02:09:53;7.00;;;5.03;;
21472;SDS011;10898;48.072;11.682;2023-08-20T02:11:55;5.40;;;4.72;;
21472;SDS011;10898;48.072;11.682;2023-08-20T02:13:57;9.65;;;5.32;;
21472;SDS011;10898;48.072;11.682;2023-08-20T02:16:00;6.72;;;5.28;;
21472;SDS011;10898;48.072;11.682;2023-08-20T02:18:02;8.15;;;4.93;;
21472;SDS011;10898;48.072;11.682;2023-08-20T02:20:05;5.82;;;5.22;;
21472;SDS011;10898;48.072;11.682;2023-08-20T02:22:10;9.05;;;4.80;;
21472;SDS011;10898;48.072;11.682;2023-08-20T02:24:13;10.20;;;5.20;;
21472;SDS011;10898;48.072;11.682;2023-08-20T02:26:15;9.15;;;4.93;;
21472;SDS011;10898;48.072;11.682;2023-08-20T02:28:17;7.22;;;5.20;;
21472;SDS011;10898;48.072;11.682;2023-08-20T02:30:19;6.32;;;5.10;;
21472;SDS011;10898;48.072;11.682;2023-08-20T02:32:21;7.72;;;4.72;;
21472;SDS011;10898;48.072;11.682;2023-08-20T02:34:24;7.20;;;4.97;;
21472;SDS011;10898;48.072;11.682;2023-08-20T02:36:26;8.70;;;5.10;;
21472;SDS011;10898;48.072;11.682;2023-08-20T02:38:28;6.95;;;5.28;;
21472;SDS011;10898;48.072;11.682;2023-08-20T02:40:31;8.55;;;5.30;;
21472;SDS011;10898;48.072;11.682;2023-08-20T02:44:35;7.32;;;5.60;;
21472;SDS011;10898;48.072;11.682;2023-08-20T02:46:38;8.25;;;5.40;;
21472;SDS011;10898;48.072;11.682;2023-08-20T02:48:41;6.05;;;5.45;;
21472;SDS011;10898;48.072;11.682;2023-08-20T02:50:43;7.22;;;5.72;;
21472;SDS011;10898;48.072;11.682;2023-08-20T02:52:46;9.35;;;5.70;;
21472;SDS011;10898;48.072;11.682;2023-08-20T02:54:48;8.02;;;5.10;;
21472;SDS011;10898;48.072;11.682;2023-08-20T02:56:50;8.98;;;5.32;;
21472;SDS011;10898;48.072;11.682;2023-08-20T02:58:52;6.30;;;5.07;;
21472;SDS011;10898;48.072;11.682;2023-08-20T03:00:55;10.90;;;5.53;;
21472;SDS011;10898;48.072;11.682;2023-08-20T03:02:57;7.00;;;5.20;;
21472;SDS011;10898;48.072;11.682;2023-08-20T03:04:59;6.78;;;4.68;;
21472;SDS011;10898;48.072;11.682;2023-08-20T03:07:01;7.25;;;5.25;;
21472;SDS011;10898;48.072;11.682;2023-08-20T03:09:04;6.90;;;5.25;;
21472;SDS011;10898;48.072;11.682;2023-08-20T03:11:07;8.88;;;4.50;;
21472;SDS011;10898;48.072;11.682;2023-08-20T03:13:09;6.40;;;4.72;;
21472;SDS011;10898;48.072;11.682;2023-08-20T03:15:11;5.30;;;4.68;;
21472;SDS011;10898;48.072;11.682;2023-08-20T03:17:13;6.18;;;5.00;;
21472;SDS011;10898;48.072;11.682;2023-08-20T03:19:16;7.03;;;5.05;;
21472;SDS011;10898;48.072;11.682;2023-08-20T03:21:18;5.53;;;4.90;;
21472;SDS011;10898;48.072;11.682;2023-08-20T03:23:21;6.97;;;5.05;;
21472;SDS011;10898;48.072;11.682;2023-08-20T03:25:23;9.38;;;4.78;;
21472;SDS011;10898;48.072;11.682;2023-08-20T03:27:25;6.97;;;4.93;;
21472;SDS011;10898;48.072;11.682;2023-08-20T03:29:28;7.43;;;5.13;;
21472;SDS011;10898;48.072;11.682;2023-08-20T03:31:30;8.75;;;5.22;;
21472;SDS011;10898;48.072;11.682;2023-08-20T03:33:32;5.68;;;4.85;;
21472;SDS011;10898;48.072;11.682;2023-08-20T03:35:34;6.78;;;4.80;;
21472;SDS011;10898;48.072;11.682;2023-08-20T03:37:36;7.18;;;5.25;;
21472;SDS011;10898;48.072;11.682;2023-08-20T03:39:39;6.65;;;5.00;;
21472;SDS011;10898;48.072;11.682;2023-08-20T03:41:41;6.05;;;5.35;;
21472;SDS011;10898;48.072;11.682;2023-08-20T03:43:43;6.45;;;4.88;;
21472;SDS011;10898;48.072;11.682;2023-08-20T03:45:49;6.60;;;4.22;;
21472;SDS011;10898;48.072;11.682;2023-08-20T03:47:51;8.00;;;5.05;;
21472;SDS011;10898;48.072;11.682;2023-08-20T03:49:53;8.40;;;4.57;;
21472;SDS011;10898;48.072;11.682;2023-08-20T03:51:55;9.93;;;5.00;;
21472;SDS011;10898;48.072;11.682;2023-08-20T03:53:58;9.63;;;4.72;;
21472;SDS011;10898;48.072;11.682;2023-08-20T03:56:00;10.05;;;5.80;;
21472;SDS011;10898;48.072;11.682;2023-08-20T03:58:02;5.47;;;4.78;;
21472;SDS011;10898;48.072;11.682;2023-08-20T04:00:04;10.00;;;5.13;;
21472;SDS011;10898;48.072;11.682;2023-08-20T04:02:10;7.00;;;5.43;;
21472;SDS011;10898;48.072;11.682;2023-08-20T04:04:12;8.00;;;5.38;;
21472;SDS011;10898;48.072;11.682;2023-08-20T04:06:14;6.88;;;4.72;;
21472;SDS011;10898;48.072;11.682;2023-08-20T04:08:17;5.38;;;4.88;;
21472;SDS011;10898;48.072;11.682;2023-08-20T04:10:19;5.47;;;4.97;;
21472;SDS011;10898;48.072;11.682;2023-08-20T04:12:21;9.45;;;5.80;;
21472;SDS011;10898;48.072;11.682;2023-08-20T04:14:23;5.68;;;4.55;;
21472;SDS011;10898;48.072;11.682;2023-08-20T04:16:25;7.53;;;5.30;;
21472;SDS011;10898;48.072;11.682;2023-08-20T04:18:28;8.38;;;5.20;;
21472;SDS011;10898;48.072;11.682;2023-08-20T04:20:30;9.15;;;5.45;;
21472;SDS011;10898;48.072;11.682;2023-08-20T04:22:32;9.32;;;5.10;;
21472;SDS011;10898;48.072;11.682;2023-08-20T04:24:34;6.72;;;5.28;;
21472;SDS011;10898;48.072;11.682;2023-08-20T04:26:37;6.43;;;4.93;;
21472;SDS011;10898;48.072;11.682;2023-08-20T04:28:39;8.95;;;5.07;;
21472;SDS011;10898;48.072;11.682;2023-08-20T04:30:41;5.78;;;5.20;;
21472;SDS011;10898;48.072;11.682;2023-08-20T04:32:45;5.95;;;4.97;;
21472;SDS011;10898;48.072;11.682;2023-08-20T04:34:47;9.63;;;5.15;;
21472;SDS011;10898;48.072;11.682;2023-08-20T04:36:51;5.95;;;4.90;;
21472;SDS011;10898;48.072;11.682;2023-08-20T04:38:53;6.85;;;5.05;;
21472;SDS011;10898;48.072;11.682;2023-08-20T04:40:55;5.47;;;4.97;;
21472;SDS011;10898;48.072;11.682;2023-08-20T04:42:57;9.00;;;5.60;;
21472;SDS011;10898;48.072;11.682;2023-08-20T04:44:59;5.75;;;5.18;;
21472;SDS011;10898;48.072;11.682;2023-08-20T04:47:01;6.10;;;4.70;;
21472;SDS011;10898;48.072;11.682;2023-08-20T04:49:04;8.25;;;5.35;;
21472;SDS011;10898;48.072;11.682;2023-08-20T04:51:07;6.57;;;5.18;;
21472;SDS011;10898;48.072;11.682;2023-08-20T04:53:09;6.53;;;5.35;;
21472;SDS011;10898;48.072;11.682;2023-08-20T04:55:11;7.88;;;5.38;;
21472;SDS011;10898;48.072;11.682;2023-08-20T04:57:13;6.95;;;5.28;;
21472;SDS011;10898;48.072;11.682;2023-08-20T04:59:16;9.13;;;5.50;;
21472;SDS011;10898;48.072;11.682;2023-08-20T05:01:18;8.80;;;5.40;;
21472;SDS011;10898;48.072;11.682;2023-08-20T05:03:20;8.65;;;5.68;;
21472;SDS011;10898;48.072;11.682;2023-08-20T05:05:22;7.38;;;5.65;;
21472;SDS011;10898;48.072;11.682;2023-08-20T05:07:25;8.73;;;6.00;;
21472;SDS011;10898;48.072;11.682;2023-08-20T05:09:28;7.70;;;5.15;;
21472;SDS011;10898;48.072;11.682;2023-08-20T05:11:30;9.23;;;5.30;;
21472;SDS011;10898;48.072;11.682;2023-08-20T05:13:34;8.85;;;4.97;;
21472;SDS011;10898;48.072;11.682;2023-08-20T05:15:36;7.97;;;5.25;;
21472;SDS011;10898;48.072;11.682;2023-08-20T05:17:38;6.03;;;5.13;;
21472;SDS011;10898;48.072;11.682;2023-08-20T05:19:41;7.10;;;5.10;;
21472;SDS011;10898;48.072;11.682;2023-08-20T05:21:43;6.72;;;4.53;;
21472;SDS011;10898;48.072;11.682;2023-08-20T05:23:45;6.28;;;4.95;;
21472;SDS011;10898;48.072;11.682;2023-08-20T05:25:47;7.38;;;5.35;;
21472;SDS011;10898;48.072;11.682;2023-08-20T05:27:49;8.07;;;4.85;;
21472;SDS011;10898;48.072;11.682;2023-08-20T05:29:52;6.95;;;4.95;;
21472;SDS011;10898;48.072;11.682;2023-08-20T05:31:54;5.85;;;4.80;;
21472;SDS011;10898;48.072;11.682;2023-08-20T05:33:56;7.18;;;5.18;;
21472;SDS011;10898;48.072;11.682;2023-08-20T05:35:59;8.25;;;5.38;;
21472;SDS011;10898;48.072;11.682;2023-08-20T05:38:01;7.03;;;4.22;;
21472;SDS011;10898;48.072;11.682;2023-08-20T05:40:03;7.03;;;5.22;;
21472;SDS011;10898;48.072;11.682;2023-08-20T05:42:06;8.00;;;5.03;;
21472;SDS011;10898;48.072;11.682;2023-08-20T05:44:09;7.00;;;5.22;;
21472;SDS011;10898;48.072;11.682;2023-08-20T05:46:11;6.38;;;5.28;;
21472;SDS011;10898;48.072;11.682;2023-08-20T05:48:14;5.88;;;5.30;;
21472;SDS011;10898;48.072;11.682;2023-08-20T05:50:16;10.75;;;5.28;;
21472;SDS011;10898;48.072;11.682;2023-08-20T05:52:18;5.60;;;4.57;;
21472;SDS011;10898;48.072;11.682;2023-08-20T05:54:20;5.97;;;5.10;;
21472;SDS011;10898;48.072;11.682;2023-08-20T05:56:22;6.85;;;4.97;;
21472;SDS011;10898;48.072;11.682;2023-08-20T05:58:25;7.28;;;5.03;;
21472;SDS011;10898;48.072;11.682;2023-08-20T06:00:27;5.72;;;5.00;;
21472;SDS011;10898;48.072;11.682;2023-08-20T06:02:29;9.30;;;4.70;;
21472;SDS011;10898;48.072;11.682;2023-08-20T06:04:31;11.30;;;5.20;;
21472;SDS011;10898;48.072;11.682;2023-08-20T06:06:34;8.57;;;4.40;;
21472;SDS011;10898;48.072;11.682;2023-08-20T06:08:36;7.68;;;4.95;;
21472;SDS011;10898;48.072;11.682;2023-08-20T06:10:38;6.93;;;4.80;;
21472;SDS011;10898;48.072;11.682;2023-08-20T06:12:40;7.90;;;5.13;;
21472;SDS011;10898;48.072;11.682;2023-08-20T06:14:42;9.05;;;4.80;;
21472;SDS011;10898;48.072;11.682;2023-08-20T06:16:45;8.48;;;4.85;;
21472;SDS011;10898;48.072;11.682;2023-08-20T06:18:47;6.90;;;4.40;;
21472;SDS011;10898;48.072;11.682;2023-08-20T06:20:51;5.03;;;4.15;;
21472;SDS011;10898;48.072;11.682;2023-08-20T06:22:53;5.70;;;4.65;;
21472;SDS011;10898;48.072;11.682;2023-08-20T06:24:55;4.93;;;4.25;;
21472;SDS011;10898;48.072;11.682;2023-08-20T06:26:59;6.82;;;4.93;;
21472;SDS011;10898;48.072;11.682;2023-08-20T06:29:01;5.47;;;4.72;;
21472;SDS011;10898;48.072;11.682;2023-08-20T06:31:03;8.60;;;5.13;;
21472;SDS011;10898;48.072;11.682;2023-08-20T06:33:06;7.32;;;4.70;;
21472;SDS011;10898;48.072;11.682;2023-08-20T06:35:08;11.02;;;4.68;;
21472;SDS011;10898;48.072;11.682;2023-08-20T06:39:13;7.50;;;4.72;;
21472;SDS011;10898;48.072;11.682;2023-08-20T06:41:16;6.30;;;4.80;;
21472;SDS011;10898;48.072;11.682;2023-08-20T06:43:19;6.65;;;4.57;;
21472;SDS011;10898;48.072;11.682;2023-08-20T06:45:21;7.82;;;4.63;;
21472;SDS011;10898;48.072;11.682;2023-08-20T06:47:23;6.80;;;4.30;;
21472;SDS011;10898;48.072;11.682;2023-08-20T06:49:25;9.05;;;4.60;;
21472;SDS011;10898;48.072;11.682;2023-08-20T06:51:27;8.13;;;4.95;;
21472;SDS011;10898;48.072;11.682;2023-08-20T06:53:30;7.28;;;4.60;;
21472;SDS011;10898;48.072;11.682;2023-08-20T06:55:32;10.93;;;4.88;;
21472;SDS011;10898;48.072;11.682;2023-08-20T06:57:34;10.82;;;4.38;;
21472;SDS011;10898;48.072;11.682;2023-08-20T06:59:37;7.57;;;4.53;;
21472;SDS011;10898;48.072;11.682;2023-08-20T07:01:39;7.25;;;4.07;;
21472;SDS011;10898;48.072;11.682;2023-08-20T07:03:42;5.40;;;4.85;;
21472;SDS011;10898;48.072;11.682;2023-08-20T07:05:45;5.78;;;4.30;;
21472;SDS011;10898;48.072;11.682;2023-08-20T07:07:47;5.35;;;3.90;;
21472;SDS011;10898;48.072;11.682;2023-08-20T07:09:49;8.88;;;4.90;;
21472;SDS011;10898;48.072;11.682;2023-08-20T07:11:51;6.55;;;4.57;;
21472;SDS011;10898;48.072;11.682;2023-08-20T07:13:53;8.00;;;4.72;;
21472;SDS011;10898;48.072;11.682;2023-08-20T07:15:56;8.65;;;4.47;;
21472;SDS011;10898;48.072;11.682;2023-08-20T07:17:58;7.10;;;4.78;;
21472;SDS011;10898;48.072;11.682;2023-08-20T07:20:01;8.57;;;4.55;;
21472;SDS011;10898;48.072;11.682;2023-08-20T07:22:04;9.43;;;4.70;;
21472;SDS011;10898;48.072;11.682;2023-08-20T07:24:06;10.80;;;4.70;;
21472;SDS011;10898;48.072;11.682;2023-08-20T07:26:09;6.05;;;4.30;;
21472;SDS011;10898;48.072;11.682;2023-08-20T07:28:13;10.50;;;4.20;;
21472;SDS011;10898;48.072;11.682;2023-08-20T07:30:15;8.05;;;4.40;;
21472;SDS011;10898;48.072;11.682;2023-08-20T07:32:18;9.20;;;4.22;;
21472;SDS011;10898;48.072;11.682;2023-08-20T07:34:20;5.32;;;4.03;;
21472;SDS011;10898;48.072;11.682;2023-08-20T07:36:23;7.63;;;4.05;;
21472;SDS011;10898;48.072;11.682;2023-08-20T07:38:26;10.80;;;4.63;;
21472;SDS011;10898;48.072;11.682;2023-08-20T07:40:28;5.57;;;3.58;;
21472;SDS011;10898;48.072;11.682;2023-08-20T07:42:33;7.57;;;4.28;;
21472;SDS011;10898;48.072;11.682;2023-08-20T07:44:35;9.88;;;4.22;;
21472;SDS011;10898;48.072;11.682;2023-08-20T07:46:37;9.75;;;3.95;;
21472;SDS011;10898;48.072;11.682;2023-08-20T07:48:39;6.28;;;3.67;;
21472;SDS011;10898;48.072;11.682;2023-08-20T07:50:42;7.03;;;3.35;;
21472;SDS011;10898;48.072;11.682;2023-08-20T07:52:44;7.57;;;3.88;;
21472;SDS011;10898;48.072;11.682;2023-08-20T07:54:46;6.10;;;4.38;;
21472;SDS011;10898;48.072;11.682;2023-08-20T07:56:48;6.32;;;3.95;;
21472;SDS011;10898;48.072;11.682;2023-08-20T07:58:50;8.82;;;3.90;;
21472;SDS011;10898;48.072;11.682;2023-08-20T08:00:53;5.45;;;4.18;;
21472;SDS011;10898;48.072;11.682;2023-08-20T08:02:55;7.60;;;4.53;;
21472;SDS011;10898;48.072;11.682;2023-08-20T08:04:57;9.98;;;4.32;;
21472;SDS011;10898;48.072;11.682;2023-08-20T08:06:59;6.80;;;4.25;;
21472;SDS011;10898;48.072;11.682;2023-08-20T08:09:14;7.28;;;3.63;;
21472;SDS011;10898;48.072;11.682;2023-08-20T08:11:16;7.18;;;3.90;;
21472;SDS011;10898;48.072;11.682;2023-08-20T08:13:19;7.78;;;4.25;;
21472;SDS011;10898;48.072;11.682;2023-08-20T08:15:22;11.52;;;4.68;;
21472;SDS011;10898;48.072;11.682;2023-08-20T08:17:24;8.18;;;4.25;;
21472;SDS011;10898;48.072;11.682;2023-08-20T08:19:26;6.32;;;4.25;;
21472;SDS011;10898;48.072;11.682;2023-08-20T08:21:28;5.65;;;4.07;;
21472;SDS011;10898;48.072;11.682;2023-08-20T08:23:31;7.50;;;4.72;;
21472;SDS011;10898;48.072;11.682;2023-08-20T08:25:33;6.40;;;4.15;;
21472;SDS011;10898;48.072;11.682;2023-08-20T08:27:35;7.97;;;3.95;;
21472;SDS011;10898;48.072;11.682;2023-08-20T08:29:57;6.43;;;3.93;;
21472;SDS011;10898;48.072;11.682;2023-08-20T08:32:00;7.50;;;4.10;;
21472;SDS011;10898;48.072;11.682;2023-08-20T08:34:02;5.95;;;3.97;;
21472;SDS011;10898;48.072;11.682;2023-08-20T08:36:04;7.57;;;4.25;;
21472;SDS011;10898;48.072;11.682;2023-08-20T08:38:07;7.88;;;4.38;;
21472;SDS011;10898;48.072;11.682;2023-08-20T08:40:09;6.13;;;3.85;;
21472;SDS011;10898;48.072;11.682;2023-08-20T08:42:12;7.78;;;4.03;;
21472;SDS011;10898;48.072;11.682;2023-08-20T08:46:18;7.40;;;4.40;;
21472;SDS011;10898;48.072;11.682;2023-08-20T08:48:20;9.05;;;4.13;;
21472;SDS011;10898;48.072;11.682;2023-08-20T08:50:23;6.65;;;3.53;;
21472;SDS011;10898;48.072;11.682;2023-08-20T08:52:25;8.80;;;4.18;;
21472;SDS011;10898;48.072;11.682;2023-08-20T08:56:30;7.78;;;3.63;;
21472;SDS011;10898;48.072;11.682;2023-08-20T08:58:32;4.65;;;3.40;;
21472;SDS011;10898;48.072;11.682;2023-08-20T09:00:34;8.07;;;3.40;;
21472;SDS011;10898;48.072;11.682;2023-08-20T09:02:37;4.88;;;3.38;;
21472;SDS011;10898;48.072;11.682;2023-08-20T09:04:39;7.18;;;3.30;;
21472;SDS011;10898;48.072;11.682;2023-08-20T09:06:48;6.65;;;3.20;;
21472;SDS011;10898;48.072;11.682;2023-08-20T09:08:51;5.68;;;3.25;;
21472;SDS011;10898;48.072;11.682;2023-08-20T09:11:05;6.13;;;3.08;;
21472;SDS011;10898;48.072;11.682;2023-08-20T09:13:07;4.43;;;3.03;;
21472;SDS011;10898;48.072;11.682;2023-08-20T09:15:10;4.85;;;3.33;;
21472;SDS011;10898;48.072;11.682;2023-08-20T09:17:13;8.45;;;3.95;;
21472;SDS011;10898;48.072;11.682;2023-08-20T09:19:15;6.43;;;3.95;;
21472;SDS011;10898;48.072;11.682;2023-08-20T09:21:17;6.60;;;3.40;;
21472;SDS011;10898;48.072;11.682;2023-08-20T09:23:20;5.13;;;3.20;;
21472;SDS011;10898;48.072;11.682;2023-08-20T09:25:22;3.53;;;2.60;;
21472;SDS011;10898;48.072;11.682;2023-08-20T09:27:24;5.40;;;3.05;;
21472;SDS011;10898;48.072;11.682;2023-08-20T09:29:26;3.25;;;2.95;;
21472;SDS011;10898;48.072;11.682;2023-08-20T09:31:36;7.10;;;3.58;;
21472;SDS011;10898;48.072;11.682;2023-08-20T09:33:51;3.88;;;3.50;;
21472;SDS011;10898;48.072;11.682;2023-08-20T09:35:53;4.07;;;3.33;;
21472;SDS011;10898;48.072;11.682;2023-08-20T09:39:58;4.82;;;3.05;;
21472;SDS011;10898;48.072;11.682;2023-08-20T09:42:01;7.68;;;3.30;;
21472;SDS011;10898;48.072;11.682;2023-08-20T09:44:03;5.05;;;3.33;;
21472;SDS011;10898;48.072;11.682;2023-08-20T09:46:06;6.57;;;3.60;;
21472;SDS011;10898;48.072;11.682;2023-08-20T09:48:11;6.60;;;3.55;;
21472;SDS011;10898;48.072;11.682;2023-08-20T09:50:17;4.35;;;3.47;;
21472;SDS011;10898;48.072;11.682;2023-08-20T09:52:29;4.65;;;3.95;;
21472;SDS011;10898;48.072;11.682;2023-08-20T09:56:54;7.93;;;4.05;;
21472;SDS011;10898;48.072;11.682;2023-08-20T09:59:00;4.43;;;3.75;;
21472;SDS011;10898;48.072;11.682;2023-08-20T10:03:05;4.07;;;3.67;;
21472;SDS011;10898;48.072;11.682;2023-08-20T10:07:09;5.47;;;3.70;;
21472;SDS011;10898;48.072;11.682;2023-08-20T10:09:12;4.28;;;3.80;;
21472;SDS011;10898;48.072;11.682;2023-08-20T10:11:14;6.78;;;3.92;;
21472;SDS011;10898;48.072;11.682;2023-08-20T10:13:16;5.80;;;4.07;;
21472;SDS011;10898;48.072;11.682;2023-08-20T10:15:19;4.38;;;3.70;;
21472;SDS011;10898;48.072;11.682;2023-08-20T10:17:27;6.55;;;3.78;;
21472;SDS011;10898;48.072;11.682;2023-08-20T10:19:30;7.68;;;4.78;;
21472;SDS011;10898;48.072;11.682;2023-08-20T10:21:33;4.78;;;3.65;;
21472;SDS011;10898;48.072;11.682;2023-08-20T10:23:40;5.07;;;3.30;;
21472;SDS011;10898;48.072;11.682;2023-08-20T10:25:43;4.00;;;3.58;;
21472;SDS011;10898;48.072;11.682;2023-08-20T10:27:47;5.68;;;3.22;;
21472;SDS011;10898;48.072;11.682;2023-08-20T10:29:49;9.05;;;3.53;;
21472;SDS011;10898;48.072;11.682;2023-08-20T10:31:51;4.43;;;3.10;;
21472;SDS011;10898;48.072;11.682;2023-08-20T10:33:56;5.15;;;3.53;;
21472;SDS011;10898;48.072;11.682;2023-08-20T10:36:06;4.72;;;3.20;;
21472;SDS011;10898;48.072;11.682;2023-08-20T10:38:12;4.40;;;3.40;;
21472;SDS011;10898;48.072;11.682;2023-08-20T10:40:46;7.40;;;3.05;;
21472;SDS011;10898;48.072;11.682;2023-08-20T10:42:41;3.20;;;2.90;;
21472;SDS011;10898;48.072;11.682;2023-08-20T10:44:58;3.63;;;3.15;;
21472;SDS011;10898;48.072;11.682;2023-08-20T10:47:00;4.10;;;3.00;;
21472;SDS011;10898;48.072;11.682;2023-08-20T10:49:08;3.40;;;2.90;;
21472;SDS011;10898;48.072;11.682;2023-08-20T10:55:15;5.38;;;3.28;;
21472;SDS011;10898;48.072;11.682;2023-08-20T10:59:29;3.92;;;2.90;;
21472;SDS011;10898;48.072;11.682;2023-08-20T11:01:32;3.13;;;2.80;;
21472;SDS011;10898;48.072;11.682;2023-08-20T11:03:34;4.22;;;2.85;;
21472;SDS011;10898;48.072;11.682;2023-08-20T11:05:38;6.13;;;2.95;;
21472;SDS011;10898;48.072;11.682;2023-08-20T11:09:43;4.55;;;2.95;;
21472;SDS011;10898;48.072;11.682;2023-08-20T11:11:46;5.45;;;3.10;;
21472;SDS011;10898;48.072;11.682;2023-08-20T11:13:48;7.05;;;2.70;;
21472;SDS011;10898;48.072;11.682;2023-08-20T11:15:51;4.70;;;3.30;;
21472;SDS011;10898;48.072;11.682;2023-08-20T11:17:53;6.95;;;3.28;;
21472;SDS011;10898;48.072;11.682;2023-08-20T11:19:55;5.35;;;3.17;;
21472;SDS011;10898;48.072;11.682;2023-08-20T11:22:08;5.45;;;3.42;;
21472;SDS011;10898;48.072;11.682;2023-08-20T11:24:11;6.63;;;3.20;;
21472;SDS011;10898;48.072;11.682;2023-08-20T11:26:14;5.80;;;3.30;;
21472;SDS011;10898;48.072;11.682;2023-08-20T11:28:16;6.88;;;3.38;;
21472;SDS011;10898;48.072;11.682;2023-08-20T11:30:18;5.55;;;2.55;;
21472;SDS011;10898;48.072;11.682;2023-08-20T11:32:20;5.63;;;3.25;;
21472;SDS011;10898;48.072;11.682;2023-08-20T11:34:23;7.45;;;3.60;;
21472;SDS011;10898;48.072;11.682;2023-08-20T11:36:25;4.32;;;3.08;;
21472;SDS011;10898;48.072;11.682;2023-08-20T11:38:27;4.50;;;2.95;;
21472;SDS011;10898;48.072;11.682;2023-08-20T11:40:31;6.78;;;3.22;;
21472;SDS011;10898;48.072;11.682;2023-08-20T11:42:33;4.40;;;2.92;;
21472;SDS011;10898;48.072;11.682;2023-08-20T11:44:46;5.70;;;2.85;;
21472;SDS011;10898;48.072;11.682;2023-08-20T11:46:48;6.72;;;3.30;;
21472;SDS011;10898;48.072;11.682;2023-08-20T11:50:56;6.88;;;3.08;;
21472;SDS011;10898;48.072;11.682;2023-08-20T11:52:58;3.95;;;3.08;;
21472;SDS011;10898;48.072;11.682;2023-08-20T11:55:02;5.88;;;3.67;;
21472;SDS011;10898;48.072;11.682;2023-08-20T11:59:08;5.73;;;3.57;;
21472;SDS011;10898;48.072;11.682;2023-08-20T12:01:13;5.88;;;2.78;;
21472;SDS011;10898;48.072;11.682;2023-08-20T12:03:17;6.18;;;3.10;;
21472;SDS011;10898;48.072;11.682;2023-08-20T12:05:21;5.72;;;3.03;;
21472;SDS011;10898;48.072;11.682;2023-08-20T12:07:25;6.32;;;2.72;;
21472;SDS011;10898;48.072;11.682;2023-08-20T12:09:28;6.68;;;3.30;;
21472;SDS011;10898;48.072;11.682;2023-08-20T12:11:30;3.22;;;2.75;;
21472;SDS011;10898;48.072;11.682;2023-08-20T12:13:34;4.53;;;3.22;;
21472;SDS011;10898;48.072;11.682;2023-08-20T12:15:36;7.55;;;3.30;;
21472;SDS011;10898;48.072;11.682;2023-08-20T12:17:38;4.45;;;3.20;;
21472;SDS011;10898;48.072;11.682;2023-08-20T12:19:41;4.25;;;3.03;;
21472;SDS011;10898;48.072;11.682;2023-08-20T12:21:43;3.60;;;2.90;;
21472;SDS011;10898;48.072;11.682;2023-08-20T12:23:45;7.82;;;3.30;;
21472;SDS011;10898;48.072;11.682;2023-08-20T12:25:51;5.38;;;3.28;;
21472;SDS011;10898;48.072;11.682;2023-08-20T12:27:53;6.82;;;3.88;;
21472;SDS011;10898;48.072;11.682;2023-08-20T12:29:55;5.57;;;3.40;;
21472;SDS011;10898;48.072;11.682;2023-08-20T12:31:58;6.88;;;3.20;;
21472;SDS011;10898;48.072;11.682;2023-08-20T12:34:01;4.28;;;3.22;;
21472;SDS011;10898;48.072;11.682;2023-08-20T12:36:03;6.18;;;3.65;;
21472;SDS011;10898;48.072;11.682;2023-08-20T12:38:06;6.03;;;3.25;;
21472;SDS011;10898;48.072;11.682;2023-08-20T12:40:09;5.95;;;3.38;;
21472;SDS011;10898;48.072;11.682;2023-08-20T12:42:13;5.03;;;3.47;;
21472;SDS011;10898;48.072;11.682;2023-08-20T12:44:15;4.85;;;2.97;;
21472;SDS011;10898;48.072;11.682;2023-08-20T12:46:17;8.48;;;3.78;;
21472;SDS011;10898;48.072;11.682;2023-08-20T12:48:20;6.53;;;3.38;;
21472;SDS011;10898;48.072;11.682;2023-08-20T12:50:22;4.75;;;3.53;;